createdAt,value
2023-02-12T00:58:42.427Z,-1.50
2023-02-12T01:08:38.162Z,-1.50
2023-02-12T01:13:33.282Z,-1.40
2023-02-12T01:18:31.626Z,-1.40
2023-02-12T01:23:24.958Z,-1.40
2023-02-12T01:28:18.349Z,-1.70
2023-02-12T01:33:11.801Z,-1.70
2023-02-12T01:38:06.643Z,-1.70
2023-02-12T01:43:03.474Z,-1.70
2023-02-12T01:47:57.393Z,-1.70
2023-02-12T01:52:57.781Z,-1.70
2023-02-12T01:57:55.161Z,-1.60
2023-02-12T02:02:56.799Z,-1.60
2023-02-12T02:07:50.924Z,-1.50
2023-02-12T02:13:01.913Z,-1.60
2023-02-12T02:18:03.987Z,-1.80
2023-02-12T02:23:28.999Z,-1.90
2023-02-12T02:29:07.968Z,-2.00
2023-02-12T02:34:13.519Z,-1.90
2023-02-12T02:39:19.818Z,-2.00
2023-02-12T02:44:23.052Z,-1.90
2023-02-12T02:49:25.435Z,-1.80
2023-02-12T02:54:27.212Z,-1.80
2023-02-12T02:59:29.235Z,-1.80
2023-02-12T03:04:32.575Z,-1.90
2023-02-12T03:09:33.579Z,-1.80
2023-02-12T03:14:33.653Z,-1.70
2023-02-12T03:19:36.420Z,-1.80
2023-02-12T03:24:38.500Z,-1.90
2023-02-12T03:29:35.388Z,-1.90
2023-02-12T03:34:51.925Z,-2.10
2023-02-12T03:39:58.011Z,-2.30
2023-02-12T03:44:59.884Z,-2.30
2023-02-12T03:50:07.766Z,-2.20
2023-02-12T03:55:01.884Z,-2.10
2023-02-12T03:59:55.893Z,-2.10
2023-02-12T04:04:51.564Z,-2.10
2023-02-12T04:09:48.557Z,-2.00
2023-02-12T04:14:56.369Z,-2.00
2023-02-12T04:20:07.688Z,-2.20
2023-02-12T04:25:30.133Z,-2.20
2023-02-12T04:30:38.917Z,-2.30
2023-02-12T04:35:48.218Z,-2.40
2023-02-12T04:40:44.858Z,-2.50
2023-02-12T04:45:39.498Z,-2.40
2023-02-12T04:51:00.539Z,-2.40
2023-02-12T04:56:12.260Z,-2.30
2023-02-12T05:01:10.410Z,-2.20
2023-02-12T05:06:13.974Z,-2.20
2023-02-12T05:11:29.887Z,-2.10
2023-02-12T05:21:31.311Z,-2.30
2023-02-12T05:51:56.268Z,-2.10
2023-02-12T05:56:58.144Z,-2.30
2023-02-12T06:01:56.279Z,-2.40
2023-02-12T06:06:57.098Z,-2.60
2023-02-12T06:24:15.807Z,-2.30
2023-02-12T06:29:10.012Z,-2.40
2023-02-12T06:34:18.895Z,-2.40
2023-02-12T06:53:16.924Z,-2.30
2023-02-12T06:58:10.436Z,-2.50
2023-02-12T07:03:04.269Z,-2.60
2023-02-12T07:07:57.830Z,-2.60
2023-02-12T07:12:52.738Z,-2.50
2023-02-12T07:17:46.232Z,-2.40
2023-02-12T07:43:14.162Z,-2.00
2023-02-12T07:53:14.968Z,-1.80
2023-02-12T07:58:08.644Z,-1.70
2023-02-12T08:03:03.577Z,-1.50
2023-02-12T08:07:57.194Z,-1.40
2023-02-12T08:12:50.647Z,-1.40
2023-02-12T08:17:44.585Z,-1.20
2023-02-12T08:22:39.515Z,-1.10
2023-02-12T08:27:33.080Z,-0.90
2023-02-12T08:32:35.724Z,-0.80
2023-02-12T08:37:36.495Z,-0.60
2023-02-12T08:43:00.280Z,-0.40
2023-02-12T08:48:20.038Z,-0.30
2023-02-12T09:13:37.383Z,0.80
2023-02-12T09:18:33.282Z,1.10
2023-02-12T09:23:26.680Z,1.20
2023-02-12T09:28:20.492Z,1.40
2023-02-12T09:33:15.474Z,1.60
2023-02-12T09:43:32.562Z,1.90
2023-02-12T10:14:12.618Z,2.80
2023-02-12T11:30:58.020Z,4.40
2023-02-12T11:35:55.532Z,4.40
2023-02-12T11:40:49.845Z,4.60
2023-02-12T11:45:48.761Z,4.70
2023-02-12T12:31:44.028Z,5.70
2023-02-12T12:37:37.343Z,5.90
2023-02-12T12:43:10.716Z,5.90
2023-02-12T12:48:25.629Z,6.00
2023-02-12T12:53:39.832Z,6.10
2023-02-12T12:58:50.263Z,6.20
2023-02-12T13:04:17.882Z,6.30
2023-02-12T13:10:01.880Z,6.40
2023-02-12T13:15:04.820Z,6.60
2023-02-12T13:20:12.747Z,6.60
2023-02-12T13:25:22.113Z,6.70
2023-02-12T13:30:25.468Z,6.70
2023-02-12T13:51:43.552Z,7.00
2023-02-12T13:56:45.026Z,7.10
2023-02-12T14:01:46.502Z,7.10
2023-02-12T14:06:55.889Z,7.20
2023-02-12T14:11:54.616Z,7.30
2023-02-12T14:16:48.023Z,7.40
2023-02-12T14:21:46.130Z,7.50
2023-02-12T14:26:40.687Z,7.50
2023-02-12T14:31:36.924Z,7.40
2023-02-12T14:36:44.100Z,7.40
2023-02-12T14:41:41.793Z,7.50
2023-02-12T14:46:48.811Z,7.60
2023-02-12T15:12:16.536Z,7.90
2023-02-12T15:32:59.783Z,8.10
2023-02-12T15:38:00.411Z,7.90
2023-02-12T16:55:19.321Z,5.90
2023-02-12T17:00:18.681Z,5.80
2023-02-12T17:05:13.058Z,5.70
2023-02-12T17:10:07.983Z,5.50
2023-02-12T17:15:06.581Z,5.40
2023-02-12T17:20:00.029Z,5.30
2023-02-12T17:24:54.781Z,5.10
2023-02-12T17:29:48.648Z,5.00
2023-02-12T17:44:57.400Z,4.80
2023-02-12T18:36:16.070Z,3.40
2023-02-12T18:41:11.571Z,3.40
2023-02-12T18:46:11.188Z,3.30
2023-02-12T19:22:13.576Z,2.90
2023-02-12T19:27:07.217Z,2.90
2023-02-12T19:42:17.622Z,2.80
2023-02-12T19:52:17.856Z,2.60
2023-02-12T19:57:13.472Z,2.60
2023-02-12T20:02:08.798Z,2.50
2023-02-12T20:07:02.378Z,2.50
2023-02-12T20:23:36.145Z,2.20
2023-02-12T20:28:29.584Z,2.00
2023-02-12T20:33:23.059Z,1.90
2023-02-12T20:38:27.963Z,1.80
2023-02-12T21:03:57.123Z,1.50
2023-02-12T21:08:52.060Z,1.50
2023-02-12T21:13:58.455Z,1.40
2023-02-12T21:19:05.410Z,1.40
2023-02-12T21:24:01.372Z,1.40
2023-02-12T21:34:14.540Z,1.30
2023-02-12T21:39:12.312Z,1.10
2023-02-12T21:44:18.072Z,1.20
2023-02-12T21:49:17.573Z,1.00
2023-02-12T21:54:15.373Z,1.00
2023-02-12T21:59:10.138Z,1.10
2023-02-12T22:04:05.866Z,1.10
2023-02-12T22:10:05.894Z,1.10
2023-02-12T22:15:02.260Z,1.00
2023-02-12T22:19:55.703Z,1.00
2023-02-12T22:24:50.640Z,1.00
2023-02-12T22:29:44.042Z,0.90
2023-02-12T22:34:37.553Z,0.90
2023-02-12T22:39:31.099Z,0.80
2023-02-12T22:44:25.825Z,0.70
2023-02-12T22:49:19.834Z,0.80
2023-02-12T22:54:16.407Z,0.70
2023-02-12T22:59:12.668Z,0.70
2023-02-12T23:04:07.919Z,0.70
2023-02-12T23:09:05.566Z,0.70
2023-02-12T23:13:59.823Z,0.60
2023-02-12T23:18:56.835Z,0.50
2023-02-12T23:23:51.736Z,0.50
2023-02-12T23:28:45.122Z,0.50
2023-02-12T23:33:38.632Z,0.40
2023-02-12T23:38:32.131Z,0.20
2023-02-12T23:43:26.867Z,0.30
2023-02-12T23:48:20.269Z,0.30
2023-02-12T23:53:13.919Z,0.30
2023-02-12T23:58:08.380Z,0.30
